createdAt,value
2023-08-08T00:00:04.306Z,76.8
2023-08-08T00:01:34.983Z,76.8
2023-08-08T00:03:05.635Z,76.7
2023-08-08T00:04:36.483Z,76.6
2023-08-08T00:06:06.996Z,76.1
2023-08-08T00:07:37.544Z,75.8
2023-08-08T00:09:08.050Z,75.7
2023-08-08T00:10:38.568Z,75.1
2023-08-08T00:12:09.107Z,74.9
2023-08-08T00:13:40.181Z,74.7
2023-08-08T00:15:10.944Z,74.7
2023-08-08T00:16:41.774Z,73.8
2023-08-08T00:18:29.316Z,74.2
2023-08-08T00:19:59.835Z,74.4
2023-08-08T00:21:30.376Z,74.7
2023-08-08T00:23:01.005Z,74.7
2023-08-08T00:24:31.505Z,74.9
2023-08-08T00:26:02.065Z,74.6
2023-08-08T00:27:32.561Z,74.4
2023-08-08T00:29:03.256Z,74.6
2023-08-08T00:30:33.702Z,74.8
2023-08-08T00:32:04.377Z,74.7
2023-08-08T00:33:35.669Z,75.1
2023-08-08T00:35:06.203Z,75.1
2023-08-08T00:36:36.735Z,75.9
2023-08-08T00:38:07.271Z,74.8
2023-08-08T00:39:37.764Z,75.5
2023-08-08T00:41:08.294Z,74.7
2023-08-08T00:42:38.845Z,75.4
2023-08-08T00:44:09.365Z,75.7
2023-08-08T00:45:39.861Z,76.1
2023-08-08T00:47:10.372Z,76.5
2023-08-08T00:48:40.907Z,77
2023-08-08T00:50:11.439Z,77.5
2023-08-08T00:51:41.942Z,77.8
2023-08-08T00:53:12.455Z,78
2023-08-08T00:54:42.908Z,78.1
2023-08-08T00:56:13.396Z,78
2023-08-08T00:57:43.857Z,78.2
2023-08-08T00:59:14.397Z,78.2
2023-08-08T01:00:45.150Z,78.2
2023-08-08T01:02:15.953Z,78.1
2023-08-08T01:03:46.547Z,78.2
2023-08-08T01:05:17.061Z,78.1
2023-08-08T01:06:47.568Z,78.3
2023-08-08T01:08:18.133Z,78.3
2023-08-08T01:09:48.634Z,78.4
2023-08-08T01:11:19.147Z,78.3
2023-08-08T01:12:49.682Z,77.8
2023-08-08T01:14:20.354Z,77.7
2023-08-08T01:15:50.946Z,77.3
2023-08-08T01:17:21.432Z,77.2
2023-08-08T01:18:52.063Z,76.9
2023-08-08T01:20:22.578Z,77
2023-08-08T01:21:53.098Z,76.9
2023-08-08T01:23:23.546Z,77.2
2023-08-08T01:24:54.049Z,77.2
2023-08-08T01:26:24.465Z,77.3
2023-08-08T01:27:54.894Z,77.5
2023-08-08T01:29:25.365Z,77.5
2023-08-08T01:30:55.973Z,77.5
2023-08-08T01:32:26.602Z,77.9
2023-08-08T01:33:57.296Z,77.8
2023-08-08T01:35:27.752Z,78.1
2023-08-08T01:36:58.242Z,77.9
2023-08-08T01:38:28.755Z,77.9
2023-08-08T01:39:59.491Z,77.5
2023-08-08T01:41:30.121Z,77.2
2023-08-08T01:43:00.632Z,77
2023-08-08T01:44:31.223Z,76.4
2023-08-08T01:46:01.783Z,76.8
2023-08-08T01:47:32.444Z,76.7
2023-08-08T01:49:03.130Z,76.2
2023-08-08T01:50:33.553Z,76.6
2023-08-08T01:52:04.095Z,76.1
2023-08-08T01:53:34.633Z,76.2
2023-08-08T01:55:05.132Z,76.2
2023-08-08T01:56:35.582Z,76.1
2023-08-08T01:58:06.116Z,76.2
2023-08-08T01:59:36.687Z,76.2
2023-08-08T02:01:07.141Z,76.3
2023-08-08T02:03:20.765Z,76
2023-08-08T02:04:51.362Z,76.1
2023-08-08T02:06:21.836Z,76
2023-08-08T02:07:52.258Z,76.3
2023-08-08T02:09:23.345Z,76.5
2023-08-08T02:10:53.813Z,76.7
2023-08-08T02:12:24.226Z,76.6
2023-08-08T02:13:54.680Z,76.7
2023-08-08T02:15:25.241Z,77.5
2023-08-08T02:16:55.698Z,76.9
2023-08-08T02:18:26.162Z,76.9
2023-08-08T02:19:56.652Z,76.6
2023-08-08T02:21:27.057Z,76.4
2023-08-08T02:22:57.490Z,76.5
2023-08-08T02:24:27.900Z,76.6
2023-08-08T02:25:58.322Z,76.6
2023-08-08T02:27:28.737Z,77.2
2023-08-08T02:28:59.163Z,76.8
2023-08-08T02:30:29.660Z,76.7
2023-08-08T02:32:00.758Z,77.4
2023-08-08T02:33:31.756Z,77.6
2023-08-08T02:35:02.185Z,77.9
2023-08-08T02:36:32.590Z,78.6
2023-08-08T02:38:03.025Z,78
2023-08-08T02:39:33.439Z,77.9
2023-08-08T02:41:03.854Z,77.8
2023-08-08T02:42:34.309Z,77.8
2023-08-08T02:44:04.801Z,77.8
2023-08-08T02:45:35.317Z,77.5
2023-08-08T02:47:05.849Z,77.5
2023-08-08T02:48:36.271Z,77.9
2023-08-08T02:50:06.686Z,77.5
2023-08-08T02:51:37.113Z,77.8
2023-08-08T02:53:07.531Z,77.7
2023-08-08T02:54:37.944Z,77.6
2023-08-08T02:56:08.369Z,77.9
2023-08-08T02:57:38.796Z,78.2
2023-08-08T02:59:09.313Z,78.3
2023-08-08T03:00:39.897Z,78.3
2023-08-08T03:02:10.359Z,78.5
2023-08-08T03:03:40.875Z,78.1
2023-08-08T03:05:11.399Z,78.1
2023-08-08T03:06:41.827Z,78
2023-08-08T03:08:12.249Z,78.2
2023-08-08T03:09:42.653Z,78.1
2023-08-08T03:11:13.093Z,78.2
2023-08-08T03:12:43.497Z,78.1
2023-08-08T03:14:13.976Z,78.4
2023-08-08T03:15:44.573Z,78.7
2023-08-08T03:17:15.122Z,78.1
2023-08-08T03:18:46.160Z,78.5
2023-08-08T03:20:17.239Z,78.8
2023-08-08T03:21:47.941Z,78.6
2023-08-08T03:23:18.389Z,78.7
2023-08-08T03:24:50.969Z,78.6
2023-08-08T03:26:21.390Z,78.6
2023-08-08T03:27:51.800Z,78.6
2023-08-08T03:29:22.228Z,78.6
2023-08-08T03:30:52.806Z,78.3
2023-08-08T03:32:23.361Z,78
2023-08-08T03:33:53.971Z,77.9
2023-08-08T03:35:24.560Z,78.1
2023-08-08T03:36:55.038Z,78.3
2023-08-08T03:38:25.503Z,78.1
2023-08-08T03:39:56.029Z,78.5
2023-08-08T03:41:26.502Z,78.4
2023-08-08T03:42:56.933Z,78.6
2023-08-08T03:44:27.349Z,78.9
2023-08-08T03:45:57.836Z,78.4
2023-08-08T03:47:28.395Z,78.4
2023-08-08T03:48:59.035Z,78.5
2023-08-08T03:50:29.429Z,78.6
2023-08-08T03:51:59.851Z,78.4
2023-08-08T03:52:17.779Z,78.4
2023-08-08T03:53:48.686Z,78.7
2023-08-08T03:55:19.187Z,78.7
2023-08-08T03:56:49.614Z,78.8
2023-08-08T03:58:20.155Z,78.8
2023-08-08T03:59:50.659Z,78.9
2023-08-08T04:01:21.169Z,78.8
2023-08-08T04:02:51.905Z,79.3
2023-08-08T04:04:22.429Z,79.4
2023-08-08T04:05:53.054Z,79.7
2023-08-08T04:07:23.588Z,79.9
2023-08-08T04:08:54.105Z,79.7
2023-08-08T04:10:24.559Z,79.9
2023-08-08T04:11:55.175Z,80
2023-08-08T04:13:25.677Z,79.7
2023-08-08T04:14:56.207Z,79.9
2023-08-08T04:16:28.353Z,79.8
2023-08-08T04:17:58.967Z,80.1
2023-08-08T04:19:29.405Z,80.1
2023-08-08T04:20:59.974Z,80.3
2023-08-08T04:22:30.584Z,79.7
2023-08-08T04:24:01.194Z,81.1
2023-08-08T04:25:31.689Z,79.1
2023-08-08T04:27:02.138Z,78.9
2023-08-08T04:28:32.775Z,79
2023-08-08T04:30:03.262Z,78.9
2023-08-08T04:31:33.757Z,78.7
2023-08-08T04:33:04.244Z,78.6
2023-08-08T04:34:34.733Z,78.6
2023-08-08T04:36:05.180Z,78.4
2023-08-08T04:37:35.697Z,78.6
2023-08-08T04:39:06.334Z,79.1
2023-08-08T04:40:39.099Z,78.6
2023-08-08T04:42:10.017Z,78.7
2023-08-08T04:43:40.629Z,78.8
2023-08-08T04:45:11.091Z,78.8
2023-08-08T04:46:41.660Z,78.8
2023-08-08T04:48:12.203Z,79
2023-08-08T04:49:42.826Z,79.8
2023-08-08T04:51:20.394Z,78.7
2023-08-08T04:52:50.847Z,78.1
2023-08-08T04:54:21.385Z,78
2023-08-08T04:55:52.021Z,78
2023-08-08T04:57:22.517Z,78
2023-08-08T04:58:52.948Z,78.8
2023-08-08T05:00:23.473Z,78.1
2023-08-08T05:01:54.136Z,78
2023-08-08T05:03:24.763Z,79.8
2023-08-08T05:04:55.339Z,78.9
2023-08-08T05:06:25.854Z,79.2
2023-08-08T05:07:56.482Z,79.5
2023-08-08T05:09:26.911Z,80.7
2023-08-08T05:10:57.416Z,79.4
2023-08-08T05:12:29.641Z,79.4
2023-08-08T05:14:00.112Z,79.3
2023-08-08T05:15:30.678Z,79.5
2023-08-08T05:18:23.824Z,79.7
2023-08-08T05:19:54.331Z,80.4
2023-08-08T05:21:24.876Z,80.3
2023-08-08T05:22:58.628Z,79.9
2023-08-08T05:24:29.185Z,80.9
2023-08-08T05:26:04.670Z,81.7
2023-08-08T05:27:38.105Z,80.5
2023-08-08T05:29:08.537Z,80.2
2023-08-08T05:30:44.642Z,79.6
2023-08-08T05:32:24.136Z,79.8
2023-08-08T05:33:54.739Z,79.9
2023-08-08T05:35:30.985Z,79.4
2023-08-08T05:37:17.496Z,79.8
2023-08-08T05:38:48.211Z,79.5
2023-08-08T05:40:21.036Z,80
2023-08-08T05:43:38.801Z,83
2023-08-08T05:45:09.227Z,85.7
2023-08-08T05:46:39.685Z,81
2023-08-08T05:48:10.221Z,80.8
2023-08-08T05:49:40.916Z,81.4
2023-08-08T05:51:11.354Z,80.6
2023-08-08T05:52:41.978Z,80.5
2023-08-08T05:54:12.714Z,80
2023-08-08T05:55:43.216Z,79.8
2023-08-08T05:57:13.716Z,79.8
2023-08-08T05:58:44.131Z,80.8
2023-08-08T06:00:14.665Z,83.1
2023-08-08T06:01:45.089Z,80.3
2023-08-08T06:03:15.593Z,80.2
2023-08-08T06:04:46.194Z,80.4
2023-08-08T06:06:16.658Z,80.6
2023-08-08T06:07:47.168Z,80.5
2023-08-08T06:09:17.592Z,80.7
2023-08-08T06:10:48.055Z,80.8
2023-08-08T06:12:18.530Z,81.1
2023-08-08T06:13:49.053Z,81.3
2023-08-08T06:15:19.539Z,81.1
2023-08-08T06:16:50.010Z,80.7
2023-08-08T06:18:20.556Z,80.9
2023-08-08T06:19:51.118Z,80.9
2023-08-08T06:21:21.670Z,80.8
2023-08-08T06:22:52.083Z,81.4
2023-08-08T06:24:23.160Z,83.4
2023-08-08T06:25:53.785Z,81.1
2023-08-08T06:27:24.269Z,80.9
2023-08-08T06:28:54.702Z,82.8
2023-08-08T06:30:25.124Z,80.3
2023-08-08T06:31:55.745Z,80.3
2023-08-08T06:33:26.269Z,80.5
2023-08-08T06:34:57.091Z,80.6
2023-08-08T06:36:27.507Z,82.1
2023-08-08T06:37:57.929Z,81.7
2023-08-08T06:39:28.357Z,83
2023-08-08T06:40:58.780Z,84.1
2023-08-08T06:42:29.191Z,82.5
2023-08-08T06:43:59.648Z,83.2
2023-08-08T06:45:30.132Z,84.6
2023-08-08T06:47:00.657Z,86.6
2023-08-08T06:48:31.090Z,85.5
2023-08-08T06:50:01.826Z,83.4
2023-08-08T06:51:32.322Z,86.4
2023-08-08T06:53:02.776Z,86.8
2023-08-08T06:54:33.267Z,87.2
2023-08-08T06:56:03.801Z,85.6
2023-08-08T06:57:34.232Z,86.8
2023-08-08T06:59:04.782Z,87.2
2023-08-08T07:00:35.407Z,87
2023-08-08T07:02:06.584Z,86.8
2023-08-08T07:03:37.954Z,87.3
2023-08-08T07:05:08.753Z,87.9
2023-08-08T07:06:39.334Z,85.8
2023-08-08T07:08:09.919Z,86.3
2023-08-08T07:09:40.488Z,87.9
2023-08-08T07:11:11.087Z,86.9
2023-08-08T07:12:41.737Z,89
2023-08-08T07:14:12.340Z,86.8
2023-08-08T07:15:42.981Z,85.7
2023-08-08T07:17:13.478Z,83.5
2023-08-08T07:18:44.088Z,83.5
2023-08-08T07:20:14.806Z,82.4
2023-08-08T07:21:45.283Z,83
2023-08-08T07:23:15.895Z,85.1
2023-08-08T07:24:46.387Z,81.4
2023-08-08T07:26:16.932Z,85.6
2023-08-08T07:27:47.328Z,86.4
2023-08-08T07:29:17.861Z,87.1
2023-08-08T07:31:05.215Z,87.7
2023-08-08T07:32:35.806Z,87.5
2023-08-08T07:34:06.325Z,87.3
2023-08-08T07:35:36.908Z,87.9
2023-08-08T07:37:07.371Z,86
2023-08-08T07:38:37.889Z,85.2
2023-08-08T07:40:08.453Z,85.3
2023-08-08T07:41:38.937Z,86.9
2023-08-08T07:43:09.392Z,85.6
2023-08-08T07:44:40.086Z,82.4
2023-08-08T07:46:10.640Z,87.3
2023-08-08T07:47:41.198Z,84
2023-08-08T07:49:11.783Z,82.9
2023-08-08T07:50:42.451Z,86.4
2023-08-08T07:52:12.989Z,86.8
2023-08-08T07:53:47.120Z,84.8
2023-08-08T07:55:17.885Z,88
2023-08-08T07:56:48.378Z,87.5
2023-08-08T07:58:18.948Z,86.1
2023-08-08T07:59:49.562Z,85.6
2023-08-08T08:03:24.070Z,85.2
2023-08-08T08:04:54.590Z,85.9
2023-08-08T08:06:25.204Z,85.6
2023-08-08T08:07:55.744Z,86
2023-08-08T08:09:26.157Z,86
2023-08-08T08:10:56.587Z,87
2023-08-08T08:12:27.004Z,86.6
2023-08-08T08:13:57.420Z,86.2
2023-08-08T08:15:27.832Z,87.3
2023-08-08T08:16:58.352Z,86.5
2023-08-08T08:18:28.821Z,86.1
2023-08-08T08:19:59.297Z,85.8
2023-08-08T08:21:29.885Z,86.1
2023-08-08T08:23:00.361Z,86.9
2023-08-08T08:24:30.779Z,86.6
2023-08-08T08:26:01.206Z,86.4
2023-08-08T08:27:31.657Z,86
2023-08-08T08:29:02.128Z,84.8
2023-08-08T08:30:32.550Z,86.3
2023-08-08T08:32:03.538Z,85.1
2023-08-08T08:33:34.103Z,85.6
2023-08-08T08:35:04.526Z,87.1
2023-08-08T08:36:34.995Z,86.5
2023-08-08T08:38:05.464Z,84.8
2023-08-08T08:39:35.897Z,87.1
2023-08-08T08:41:06.340Z,88.1
2023-08-08T08:42:36.839Z,88.3
2023-08-08T08:44:07.251Z,89.2
2023-08-08T08:45:37.682Z,87.4
2023-08-08T08:47:08.257Z,86.5
2023-08-08T08:48:38.717Z,86.8
2023-08-08T08:50:09.161Z,87
2023-08-08T08:51:39.809Z,86.5
2023-08-08T08:53:10.228Z,87.7
2023-08-08T08:54:40.721Z,80.3
2023-08-08T08:56:11.309Z,80.3
2023-08-08T08:57:41.755Z,80.2
2023-08-08T08:59:12.172Z,80.4
2023-08-08T09:00:42.951Z,80.5
2023-08-08T09:02:13.527Z,81.6
2023-08-08T09:03:44.085Z,84.4
2023-08-08T09:05:14.889Z,83.4
2023-08-08T09:06:45.367Z,84.8
2023-08-08T09:08:15.823Z,85.1
2023-08-08T09:09:46.290Z,87.6
2023-08-08T09:11:16.768Z,87.6
2023-08-08T09:12:47.229Z,88.7
2023-08-08T09:14:17.730Z,88.5
2023-08-08T09:15:48.132Z,88.4
2023-08-08T09:17:18.645Z,89
2023-08-08T09:18:50.621Z,89.4
2023-08-08T09:20:21.069Z,85.1
2023-08-08T09:21:51.576Z,86.5
2023-08-08T09:23:22.195Z,81.6
2023-08-08T09:24:52.712Z,84.4
2023-08-08T09:26:23.114Z,84.4
2023-08-08T09:27:53.550Z,82.8
2023-08-08T09:29:23.961Z,84.5
2023-08-08T09:30:54.459Z,83.5
2023-08-08T09:32:24.926Z,81.1
2023-08-08T09:33:55.437Z,82.7
2023-08-08T09:35:25.838Z,86
2023-08-08T09:36:56.299Z,85
2023-08-08T09:38:26.825Z,87.4
2023-08-08T09:39:57.220Z,80.5
2023-08-08T09:41:27.777Z,83.4
2023-08-08T09:42:58.264Z,84.7
2023-08-08T09:44:28.716Z,86.3
2023-08-08T09:45:59.270Z,84.1
2023-08-08T09:47:29.790Z,79.2
2023-08-08T09:49:00.245Z,80.2
2023-08-08T09:50:30.660Z,79.3
2023-08-08T09:52:01.829Z,79.6
2023-08-08T09:52:18.905Z,79.9
2023-08-08T09:53:49.413Z,80.1
2023-08-08T09:55:19.825Z,80.1
2023-08-08T09:56:50.365Z,81.2
2023-08-08T09:58:20.880Z,81.4
2023-08-08T09:59:51.506Z,80.8
2023-08-08T10:01:22.130Z,80.2
2023-08-08T10:02:52.916Z,80.2
2023-08-08T10:04:23.596Z,78.2
2023-08-08T10:05:54.148Z,77.8
2023-08-08T10:07:24.710Z,78.5
2023-08-08T10:08:55.294Z,80.2
2023-08-08T10:10:25.802Z,80.8
2023-08-08T10:11:56.331Z,80.3
2023-08-08T10:13:27.121Z,81.7
2023-08-08T10:14:57.550Z,80.3
2023-08-08T10:16:28.039Z,84.3
2023-08-08T10:17:58.642Z,82.2
2023-08-08T10:19:29.221Z,84.9
2023-08-08T10:20:59.648Z,82.4
2023-08-08T10:22:30.348Z,80.4
2023-08-08T10:24:00.998Z,79.3
2023-08-08T10:25:31.430Z,79.9
2023-08-08T10:27:01.931Z,79.2
2023-08-08T10:28:32.493Z,77.9
2023-08-08T10:30:02.999Z,78.2
2023-08-08T10:31:33.536Z,78.7
2023-08-08T10:33:04.210Z,77.6
2023-08-08T10:34:34.655Z,79
2023-08-08T10:36:05.373Z,78.4
2023-08-08T10:37:36.052Z,79.8
2023-08-08T10:39:06.665Z,78.2
2023-08-08T10:40:37.147Z,79.8
2023-08-08T10:42:07.679Z,80.9
2023-08-08T10:43:38.159Z,82.3
2023-08-08T10:45:08.658Z,81.2
2023-08-08T10:46:39.222Z,81.8
2023-08-08T10:48:09.784Z,82.9
2023-08-08T10:49:40.309Z,82.2
2023-08-08T10:51:11.389Z,81.3
2023-08-08T10:52:41.765Z,82.1
2023-08-08T10:54:12.178Z,81.2
2023-08-08T10:55:42.785Z,82
2023-08-08T10:57:13.210Z,82.1
2023-08-08T10:58:43.636Z,84
2023-08-08T11:00:14.334Z,82.8
2023-08-08T11:01:44.811Z,83.8
2023-08-08T11:03:15.317Z,83.1
2023-08-08T11:04:45.832Z,84.6
2023-08-08T11:06:16.698Z,84
2023-08-08T11:07:47.416Z,82.3
2023-08-08T11:09:17.899Z,84.7
2023-08-08T11:10:48.941Z,83.1
2023-08-08T11:12:20.015Z,83.5
2023-08-08T11:13:50.568Z,84.6
2023-08-08T11:15:21.495Z,84.2
2023-08-08T11:16:53.120Z,84.9
2023-08-08T11:18:23.821Z,86
2023-08-08T11:19:54.549Z,85.6
2023-08-08T11:21:25.064Z,84.2
2023-08-08T11:22:55.652Z,83.9
2023-08-08T11:24:26.115Z,85.1
2023-08-08T11:29:12.411Z,84.8
2023-08-08T11:30:42.889Z,84.2
2023-08-08T11:32:13.365Z,82.6
2023-08-08T11:33:43.879Z,81.7
2023-08-08T11:35:14.308Z,81.5
2023-08-08T11:36:44.829Z,80.8
2023-08-08T11:38:15.389Z,79.9
2023-08-08T11:39:45.863Z,81
2023-08-08T11:41:16.334Z,81.5
2023-08-08T11:41:33.297Z,81.3
2023-08-08T11:43:03.722Z,80.9
2023-08-08T11:44:34.153Z,80.2
2023-08-08T11:46:04.581Z,80.2
2023-08-08T11:47:35.261Z,84.7
2023-08-08T11:49:05.703Z,83.7
2023-08-08T11:50:36.148Z,82.2
2023-08-08T11:52:06.651Z,80.5
2023-08-08T11:53:37.272Z,82.4
2023-08-08T11:55:07.808Z,80.2
2023-08-08T11:56:38.221Z,80.2
2023-08-08T11:58:08.634Z,80
2023-08-08T11:59:39.071Z,79.3
2023-08-08T12:01:09.608Z,79.3
2023-08-08T12:02:40.198Z,79.8
2023-08-08T12:04:10.877Z,80.1
2023-08-08T12:05:41.350Z,81.3
2023-08-08T12:07:11.774Z,81.3
2023-08-08T12:08:42.301Z,83.3
2023-08-08T12:10:17.465Z,84.1
2023-08-08T12:11:48.260Z,84
2023-08-08T12:13:18.686Z,83.9
2023-08-08T12:16:43.835Z,83.6
2023-08-08T12:18:14.520Z,84.8
2023-08-08T12:19:44.928Z,86.4
2023-08-08T12:21:15.347Z,86.2
2023-08-08T12:22:45.766Z,87.2
2023-08-08T12:24:16.221Z,85.2
2023-08-08T12:25:46.760Z,87
2023-08-08T12:27:17.263Z,87.2
2023-08-08T12:28:47.657Z,87.5
2023-08-08T12:30:18.085Z,88.3
2023-08-08T12:31:48.613Z,86.8
2023-08-08T12:33:19.018Z,88.2
2023-08-08T12:34:49.431Z,87.7
2023-08-08T12:36:19.877Z,86.6
2023-08-08T12:37:50.320Z,88.3
2023-08-08T12:39:20.991Z,87.4
2023-08-08T12:40:51.523Z,86.6
2023-08-08T12:42:22.030Z,87.8
2023-08-08T12:43:52.479Z,88.1
2023-08-08T12:45:22.943Z,87.9
2023-08-08T12:46:53.507Z,87.8
2023-08-08T12:48:23.967Z,88.2
2023-08-08T12:49:54.370Z,87.4
2023-08-08T12:51:24.784Z,87.6
2023-08-08T12:52:55.199Z,88
2023-08-08T12:54:25.688Z,88.1
2023-08-08T12:55:56.147Z,88
2023-08-08T12:57:26.557Z,87.8
2023-08-08T12:58:56.981Z,85.7
2023-08-08T13:00:27.455Z,85.8
2023-08-08T13:01:58.539Z,86.2
2023-08-08T13:03:29.605Z,86.5
2023-08-08T13:05:00.165Z,84.4
2023-08-08T13:06:30.626Z,83.9
2023-08-08T13:08:01.046Z,82.2
2023-08-08T13:09:31.638Z,80.8
2023-08-08T13:11:02.104Z,85
2023-08-08T13:12:32.539Z,85.8
2023-08-08T13:14:03.147Z,84.2
2023-08-08T13:15:33.560Z,86.3
2023-08-08T13:17:03.981Z,87.2
2023-08-08T13:18:34.384Z,87.2
2023-08-08T13:20:04.823Z,86.9
2023-08-08T13:21:35.228Z,87.1
2023-08-08T13:23:05.655Z,84.8
2023-08-08T13:24:36.298Z,86.3
2023-08-08T13:26:06.817Z,87.2
2023-08-08T13:27:37.226Z,87
2023-08-08T13:29:07.664Z,87.6
2023-08-08T13:30:38.104Z,87
2023-08-08T13:30:55.236Z,87.3
2023-08-08T13:32:25.850Z,87.6
2023-08-08T13:33:56.325Z,87
2023-08-08T13:35:26.876Z,87.8
2023-08-08T13:36:57.355Z,87.2
2023-08-08T13:38:27.802Z,86.8
2023-08-08T13:39:58.376Z,88.1
2023-08-08T13:41:28.818Z,87.4
2023-08-08T13:42:59.253Z,88.3
2023-08-08T13:44:29.774Z,87.7
2023-08-08T13:46:00.397Z,87.7
2023-08-08T13:47:31.196Z,88.1
2023-08-08T13:49:01.653Z,86.5
2023-08-08T13:50:32.162Z,88.1
2023-08-08T13:52:03.020Z,88.3
2023-08-08T13:53:33.635Z,87.4
2023-08-08T13:55:04.209Z,87.9
2023-08-08T13:56:34.770Z,88.4
2023-08-08T13:58:05.205Z,88.1
2023-08-08T13:59:35.717Z,88.4
2023-08-08T14:01:06.137Z,87.8
2023-08-08T14:03:27.232Z,87.7
2023-08-08T14:04:57.771Z,87.9
2023-08-08T14:06:28.191Z,88.2
2023-08-08T14:07:58.718Z,88.3
2023-08-08T14:09:29.128Z,88.4
2023-08-08T14:10:59.600Z,88.1
2023-08-08T14:12:30.175Z,88.5
2023-08-08T14:14:00.595Z,88.2
2023-08-08T14:15:31.180Z,88.2
2023-08-08T14:17:01.654Z,88.4
2023-08-08T14:18:32.068Z,88.1
2023-08-08T14:20:02.488Z,88.1
2023-08-08T14:21:32.916Z,87.8
2023-08-08T14:23:03.465Z,88.2
2023-08-08T14:24:33.999Z,87.9
2023-08-08T14:26:04.657Z,87.7
2023-08-08T14:27:35.152Z,87.5
2023-08-08T14:29:05.631Z,88.6
2023-08-08T14:30:36.298Z,87.8
2023-08-08T14:32:07.191Z,88.4
2023-08-08T14:33:38.216Z,88
2023-08-08T14:35:08.651Z,88
2023-08-08T14:36:39.281Z,82.6
2023-08-08T14:38:09.914Z,77.1
2023-08-08T14:39:40.401Z,79.2
2023-08-08T14:41:10.864Z,82.5
2023-08-08T14:42:41.445Z,82
2023-08-08T14:44:11.865Z,80.4
2023-08-08T14:45:42.369Z,83.5
2023-08-08T14:47:12.954Z,84.8
2023-08-08T14:48:43.434Z,85.2
2023-08-08T14:50:13.884Z,84.9
2023-08-08T14:51:44.388Z,84.6
2023-08-08T14:53:14.800Z,84.9
2023-08-08T14:54:45.251Z,85.7
2023-08-08T14:56:15.911Z,85.6
2023-08-08T14:57:46.370Z,84.6
2023-08-08T14:59:16.812Z,85.3
2023-08-08T15:00:47.324Z,83.3
2023-08-08T15:02:17.959Z,83
2023-08-08T15:03:48.627Z,84.9
2023-08-08T15:05:19.228Z,85.7
2023-08-08T15:06:49.715Z,83.9
2023-08-08T15:08:20.137Z,84.9
2023-08-08T15:09:50.650Z,86.1
2023-08-08T15:11:21.138Z,85.1
2023-08-08T15:12:51.700Z,86.5
2023-08-08T15:14:22.129Z,85.8
2023-08-08T15:15:52.591Z,85.7
2023-08-08T15:17:23.411Z,85.4
2023-08-08T15:18:55.140Z,85.9
2023-08-08T15:20:25.640Z,84.9
2023-08-08T15:21:56.069Z,85.8
2023-08-08T15:23:28.271Z,86
2023-08-08T15:24:58.744Z,85.9
2023-08-08T15:26:29.325Z,85.1
2023-08-08T15:27:59.799Z,84.1
2023-08-08T15:29:30.211Z,82.5
2023-08-08T15:31:00.811Z,81.5
2023-08-08T15:32:31.402Z,80.9
2023-08-08T15:34:01.999Z,84.9
2023-08-08T15:35:32.517Z,84.2
2023-08-08T15:37:03.473Z,82.9
2023-08-08T15:38:34.067Z,82.7
2023-08-08T15:40:04.483Z,83
2023-08-08T15:41:35.055Z,85.4
2023-08-08T15:43:05.527Z,82.7
2023-08-08T15:44:35.946Z,84.8
2023-08-08T15:46:06.406Z,86.4
2023-08-08T15:47:36.933Z,85
2023-08-08T15:49:07.464Z,85.6
2023-08-08T15:50:37.976Z,87.1
2023-08-08T15:52:08.516Z,83.3
2023-08-08T15:52:25.440Z,83.6
2023-08-08T15:53:55.884Z,86.3
2023-08-08T15:55:26.323Z,85.4
2023-08-08T15:56:56.888Z,82.4
2023-08-08T15:58:27.649Z,84.8
2023-08-08T15:59:58.080Z,85.6
2023-08-08T16:01:28.573Z,85.9
2023-08-08T16:02:59.159Z,85.1
2023-08-08T16:04:29.847Z,85.4
2023-08-08T16:06:00.274Z,86
2023-08-08T16:07:30.677Z,84.6
2023-08-08T16:09:01.098Z,86.6
2023-08-08T16:10:31.526Z,84.4
2023-08-08T16:12:02.016Z,84.6
2023-08-08T16:13:32.458Z,85.6
2023-08-08T16:15:02.902Z,83.3
2023-08-08T16:16:33.478Z,85
2023-08-08T16:18:04.102Z,84.8
2023-08-08T16:19:34.568Z,80.8
2023-08-08T16:21:05.076Z,82.3
2023-08-08T16:22:35.494Z,78.5
2023-08-08T16:24:05.923Z,82.7
2023-08-08T16:25:36.382Z,83.5
2023-08-08T16:27:07.340Z,79.4
2023-08-08T16:28:37.815Z,83.7
2023-08-08T16:30:08.221Z,82.3
2023-08-08T16:31:38.717Z,81.3
2023-08-08T16:33:09.204Z,82.3
2023-08-08T16:34:39.768Z,83.1
2023-08-08T16:36:10.218Z,84.9
2023-08-08T16:37:40.619Z,82.8
2023-08-08T16:39:19.879Z,82.8
2023-08-08T16:40:50.364Z,81.3
2023-08-08T16:42:21.078Z,84.5
2023-08-08T16:43:51.512Z,81.7
2023-08-08T16:45:21.931Z,81.4
2023-08-08T16:46:52.421Z,81.7
2023-08-08T16:48:23.082Z,81.3
2023-08-08T16:49:53.500Z,81.2
2023-08-08T16:51:24.072Z,82.7
2023-08-08T16:52:54.597Z,83.1
2023-08-08T16:54:25.074Z,84
2023-08-08T16:55:55.510Z,82.3
2023-08-08T16:57:26.130Z,80.9
2023-08-08T16:58:56.538Z,83.5
2023-08-08T17:00:27.220Z,83.8
2023-08-08T17:01:57.794Z,82.8
2023-08-08T17:03:28.698Z,82.8
2023-08-08T17:04:59.262Z,81.2
2023-08-08T17:06:29.674Z,79.1
2023-08-08T17:08:00.093Z,82.5
2023-08-08T17:09:30.551Z,79.9
2023-08-08T17:11:01.041Z,78.6
2023-08-08T17:12:31.569Z,78.4
2023-08-08T17:14:02.072Z,80.2
2023-08-08T17:15:32.505Z,81
2023-08-08T17:17:02.988Z,78.4
2023-08-08T17:18:33.454Z,79.6
2023-08-08T17:20:04.006Z,78.1
2023-08-08T17:21:34.497Z,79.2
2023-08-08T17:23:04.923Z,80.5
2023-08-08T17:24:41.544Z,82.5
2023-08-08T17:26:12.005Z,82.8
2023-08-08T17:27:42.452Z,81.8
2023-08-08T17:29:12.889Z,81.7
2023-08-08T17:30:43.414Z,81.1
2023-08-08T17:32:13.995Z,83.6
2023-08-08T17:33:44.428Z,80.2
2023-08-08T17:35:14.947Z,80.3
2023-08-08T17:36:45.353Z,79.1
2023-08-08T17:38:15.793Z,82.6
2023-08-08T17:39:46.308Z,83.8
2023-08-08T17:41:16.721Z,82.1
2023-08-08T17:41:33.599Z,82.1
2023-08-08T17:43:04.246Z,83.5
2023-08-08T17:44:34.811Z,83.4
2023-08-08T17:46:05.270Z,83.3
2023-08-08T17:47:35.931Z,78.4
2023-08-08T17:49:06.477Z,77.9
2023-08-08T17:50:36.900Z,79
2023-08-08T17:52:07.413Z,79
2023-08-08T17:53:37.848Z,81.1
2023-08-08T17:55:08.260Z,80.5
2023-08-08T17:56:38.686Z,78.3
2023-08-08T17:58:09.280Z,79
2023-08-08T17:59:39.827Z,81.7
2023-08-08T18:01:10.242Z,82
2023-08-08T18:02:40.736Z,81.9
2023-08-08T18:04:11.183Z,81.1
2023-08-08T18:05:41.615Z,78.6
2023-08-08T18:07:12.042Z,78.4
2023-08-08T18:08:42.559Z,79.4
2023-08-08T18:10:12.966Z,82.5
2023-08-08T18:11:43.414Z,80.3
2023-08-08T18:13:13.880Z,80.2
2023-08-08T18:14:44.339Z,81.8
2023-08-08T18:16:14.850Z,83.3
2023-08-08T18:17:45.398Z,85
2023-08-08T18:19:15.798Z,82.4
2023-08-08T18:20:46.235Z,79.8
2023-08-08T18:22:16.634Z,82.2
2023-08-08T18:23:47.090Z,82.9
2023-08-08T18:25:17.492Z,81.8
2023-08-08T18:26:47.912Z,83.3
2023-08-08T18:28:18.362Z,80.9
2023-08-08T18:29:48.769Z,81.4
2023-08-08T18:31:19.292Z,81.5
2023-08-08T18:32:49.982Z,82.9
2023-08-08T18:34:20.422Z,79.4
2023-08-08T18:35:50.939Z,79
2023-08-08T18:37:21.404Z,80.9
2023-08-08T18:38:51.881Z,80.5
2023-08-08T18:40:22.341Z,80.4
2023-08-08T18:41:52.821Z,80.8
2023-08-08T18:43:23.461Z,83.7
2023-08-08T18:44:53.870Z,80
2023-08-08T18:46:24.418Z,80.6
2023-08-08T18:47:54.969Z,81.5
2023-08-08T18:49:25.447Z,82.1
2023-08-08T18:50:56.037Z,81.5
2023-08-08T18:52:26.471Z,84.8
2023-08-08T18:53:56.958Z,82.6
2023-08-08T18:55:27.483Z,83.2
2023-08-08T18:56:58.056Z,79.9
2023-08-08T18:58:28.547Z,80.4
2023-08-08T18:59:59.104Z,81.2
2023-08-08T19:01:29.640Z,82.9
2023-08-08T19:03:00.224Z,81.8
2023-08-08T19:04:30.802Z,83.8
2023-08-08T19:06:01.296Z,83.3
2023-08-08T19:07:31.774Z,81.7
2023-08-08T19:09:04.644Z,83.8
2023-08-08T19:10:38.483Z,79.7
2023-08-08T19:12:09.026Z,81.3
2023-08-08T19:13:39.563Z,79.5
2023-08-08T19:15:10.003Z,79.4
2023-08-08T19:16:40.592Z,79.4
2023-08-08T19:18:11.354Z,79.2
2023-08-08T19:19:41.928Z,79.6
2023-08-08T19:21:12.365Z,80.2
2023-08-08T19:22:42.786Z,79.9
2023-08-08T19:24:13.187Z,81.1
2023-08-08T19:25:43.625Z,80.2
2023-08-08T19:27:14.047Z,79.9
2023-08-08T19:28:46.051Z,80
2023-08-08T19:30:18.396Z,80.2
2023-08-08T19:33:36.407Z,80.9
2023-08-08T19:35:09.039Z,80.8
2023-08-08T19:36:39.465Z,80.9
2023-08-08T19:38:09.896Z,80.6
2023-08-08T19:39:40.297Z,81.9
2023-08-08T19:41:10.731Z,80.6
2023-08-08T19:42:41.362Z,80.6
2023-08-08T19:44:12.040Z,81
2023-08-08T19:45:42.859Z,83.1
2023-08-08T19:47:13.323Z,84.2
2023-08-08T19:48:43.744Z,82.1
2023-08-08T19:50:14.172Z,82.5
2023-08-08T19:51:44.582Z,82.6
2023-08-08T19:53:15.022Z,82.1
2023-08-08T19:54:45.454Z,81.3
2023-08-08T19:56:15.957Z,81.9
2023-08-08T19:57:46.387Z,84.3
2023-08-08T19:59:16.950Z,81.6
2023-08-08T20:00:47.628Z,81.8
2023-08-08T20:02:18.098Z,84.1
2023-08-08T20:03:48.727Z,82.5
2023-08-08T20:05:19.190Z,83.7
2023-08-08T20:06:49.609Z,83.6
2023-08-08T20:08:20.025Z,82.1
2023-08-08T20:09:50.460Z,84
2023-08-08T20:11:20.981Z,82.6
2023-08-08T20:12:51.387Z,83.3
2023-08-08T20:14:21.880Z,84.9
2023-08-08T20:15:52.481Z,84.8
2023-08-08T20:17:22.970Z,81.7
2023-08-08T20:18:53.384Z,82.7
2023-08-08T20:20:23.799Z,82.2